Time;durP1;ratioP1;P1;durP2;ratioP2;P2;SDS_P1;SDS_P2;PMS_P1;PMS_P2;Temp;Humidity;BMP_temperature;BMP_pressure;BME280_temperature;BME280_humidity;BME280_pressure;Samples;Min_cycle;Max_cycle;Signal;HPM_P1;HPM_P2
2021/05/10 00:00:38;;;;;;;2.90;1.13;;;;;;;28.47;29.05;95599.28;5019075;28;20037;-30
2021/05/10 00:03:04;;;;;;;1.58;0.95;;;;;;;28.47;28.99;95594.00;5029083;28;20032;-27
2021/05/10 00:05:29;;;;;;;2.33;0.85;;;;;;;28.46;28.90;95597.63;5026683;28;20586;-29
2021/05/10 00:07:54;;;;;;;1.55;0.93;;;;;;;28.46;28.83;95600.25;5028058;28;20036;-32
2021/05/10 00:10:20;;;;;;;2.92;0.90;;;;;;;28.46;28.99;95595.84;5037160;28;20039;-31
2021/05/10 00:12:46;;;;;;;1.58;1.05;;;;;;;28.47;28.98;95599.28;5033558;28;20021;-30
2021/05/10 00:15:12;;;;;;;0.82;0.60;;;;;;;28.46;29.05;95608.16;5029055;28;20025;-28
2021/05/10 00:17:38;;;;;;;1.58;0.75;;;;;;;28.46;28.91;95587.09;5021370;28;20628;-30
2021/05/10 00:20:04;;;;;;;2.80;0.90;;;;;;;28.46;28.98;95587.09;5034523;28;20044;-29
2021/05/10 00:22:29;;;;;;;1.25;0.80;;;;;;;28.46;28.91;95587.09;5025287;28;20106;-29
2021/05/10 00:24:54;;;;;;;1.23;0.73;;;;;;;28.46;29.07;95572.13;5032973;28;20025;-31
2021/05/10 00:27:20;;;;;;;2.15;0.60;;;;;;;28.46;28.98;95576.53;5033141;28;20556;-31
2021/05/10 00:29:45;;;;;;;0.98;0.80;;;;;;;28.45;29.08;95574.88;5032493;28;20033;-28
2021/05/10 00:32:10;;;;;;;1.08;0.80;;;;;;;28.46;28.90;95579.19;5032992;28;20056;-29
2021/05/10 00:34:36;;;;;;;1.40;0.80;;;;;;;28.46;28.95;95566.00;5023734;28;20500;-30
2021/05/10 00:37:01;;;;;;;0.75;0.70;;;;;;;28.47;29.02;95568.50;5027602;28;20029;-29
2021/05/10 00:39:27;;;;;;;1.40;0.90;;;;;;;28.47;28.97;95572.94;5026667;28;20032;-29
2021/05/10 00:41:56;;;;;;;1.00;0.73;;;;;;;28.47;28.90;95578.22;5029870;28;22721;-32
2021/05/10 00:44:21;;;;;;;0.63;0.52;;;;;;;28.47;28.89;95575.56;5028719;28;20032;-30
2021/05/10 00:46:47;;;;;;;1.92;0.90;;;;;;;28.47;28.86;95572.94;5030234;28;20036;-30
2021/05/10 00:49:12;;;;;;;0.82;0.70;;;;;;;28.47;28.84;95572.94;5028772;28;20056;-28
2021/05/10 00:51:37;;;;;;;0.82;0.80;;;;;;;28.47;28.94;95572.94;5032087;28;20099;-28
2021/05/10 00:54:03;;;;;;;1.25;0.77;;;;;;;28.47;28.96;95573.78;5032782;28;20024;-32
2021/05/10 00:56:28;;;;;;;1.00;0.70;;;;;;;28.47;29.21;95567.66;5017929;28;20048;-31
2021/05/10 00:58:54;;;;;;;1.23;0.70;;;;;;;28.46;28.94;95571.28;5033772;28;20032;-31
2021/05/10 01:01:19;;;;;;;0.82;0.70;;;;;;;28.46;28.90;95566.00;5036585;28;20790;-29
2021/05/10 01:03:48;;;;;;;1.40;0.90;;;;;;;28.46;28.85;95560.72;5040232;28;20040;-29
2021/05/10 01:06:13;;;;;;;1.65;0.57;;;;;;;28.45;29.00;95554.63;5025835;28;20032;-31
2021/05/10 01:08:38;;;;;;;1.30;0.85;;;;;;;28.46;28.90;95555.47;5032139;28;20500;-31
2021/05/10 01:11:04;;;;;;;1.10;0.68;;;;;;;28.45;28.89;95554.63;5029174;28;20686;-31
2021/05/10 01:13:30;;;;;;;3.78;0.98;;;;;;;28.46;28.90;95552.81;5027580;28;20086;-31
2021/05/10 01:15:56;;;;;;;0.90;0.60;;;;;;;28.46;28.84;95551.03;5024378;28;20024;-30
2021/05/10 01:18:21;;;;;;;1.52;0.70;;;;;;;28.45;29.05;95554.63;5031451;28;20541;-30
2021/05/10 01:20:47;;;;;;;0.60;0.60;;;;;;;28.45;28.95;95554.63;5038273;28;20032;-28
2021/05/10 01:23:13;;;;;;;1.23;0.93;;;;;;;28.46;29.06;95550.19;5042414;28;20040;-30
2021/05/10 01:25:38;;;;;;;1.67;0.70;;;;;;;28.44;28.95;95545.03;5033557;28;20029;-31
2021/05/10 01:28:04;;;;;;;1.55;0.70;;;;;;;28.41;28.96;95538.25;5025405;28;20123;-30
2021/05/10 01:30:32;;;;;;;0.70;0.70;;;;;;;28.45;28.87;95549.34;5018251;28;20082;-27
2021/05/10 01:32:58;;;;;;;1.73;0.77;;;;;;;28.45;29.05;95554.63;5020493;28;20466;-31
2021/05/10 01:35:28;;;;;;;0.50;0.50;;;;;;;28.45;28.96;95544.06;5021024;28;21216;-27
2021/05/10 01:37:54;;;;;;;0.40;0.40;;;;;;;28.46;28.92;95544.91;5029801;28;20029;-30
2021/05/10 01:40:19;;;;;;;0.98;0.70;;;;;;;28.45;28.90;95538.81;5032659;28;20056;-29
2021/05/10 01:42:45;;;;;;;0.60;0.60;;;;;;;28.46;28.98;95539.66;5029835;28;20506;-28
2021/05/10 01:45:10;;;;;;;1.17;0.70;;;;;;;28.46;28.87;95539.66;5026508;28;20031;-33
2021/05/10 01:47:36;;;;;;;0.60;0.50;;;;;;;28.46;28.81;95539.66;5031274;28;20499;-31
2021/05/10 01:50:18;;;;;;;0.93;0.65;;;;;;;28.45;28.81;95535.34;5033558;28;20029;-30
2021/05/10 01:52:47;;;;;;;0.60;0.50;;;;;;;28.45;28.84;95532.72;5023521;28;20021;-29
2021/05/10 01:55:13;;;;;;;0.93;0.70;;;;;;;28.46;28.81;95534.38;5033737;28;20060;-29
2021/05/10 01:57:40;;;;;;;0.75;0.75;;;;;;;28.46;29.02;95531.75;5024987;28;21678;-30
2021/05/10 02:00:10;;;;;;;0.75;0.57;;;;;;;28.45;28.79;95532.72;5028139;28;20028;-32
2021/05/10 02:02:36;;;;;;;1.00;0.60;;;;;;;28.45;28.84;95530.91;5030515;28;20578;-29
2021/05/10 02:05:11;;;;;;;0.73;0.47;;;;;;;28.45;28.90;95520.34;5023917;28;20037;-32
2021/05/10 02:07:38;;;;;;;0.80;0.60;;;;;;;28.45;28.98;95519.53;5028094;28;20021;-29
2021/05/10 02:10:05;;;;;;;0.75;0.50;;;;;;;28.43;29.04;95523.16;5037190;28;20048;-31
2021/05/10 02:12:31;;;;;;;0.50;0.50;;;;;;;28.45;28.98;95524.81;5029386;28;20094;-30
2021/05/10 02:14:56;;;;;;;0.60;0.50;;;;;;;28.45;28.91;95516.91;5022316;28;20636;-33
2021/05/10 02:17:21;;;;;;;0.70;0.60;;;;;;;28.45;28.94;95532.72;5033689;28;20060;-28
2021/05/10 02:19:47;;;;;;;0.82;0.60;;;;;;;28.43;29.03;95536.31;5032411;28;20075;-31
2021/05/10 02:22:12;;;;;;;1.70;0.70;;;;;;;28.43;28.90;95541.59;5025223;28;20025;-29
2021/05/10 02:24:38;;;;;;;0.40;0.40;;;;;;;28.43;29.09;95544.22;5032680;28;20271;-32
2021/05/10 02:27:04;;;;;;;1.05;0.68;;;;;;;28.43;28.96;95531.06;5027960;28;20860;-29
2021/05/10 02:29:30;;;;;;;0.60;0.60;;;;;;;28.42;29.05;95524.09;5032752;28;20432;-30
2021/05/10 02:31:55;;;;;;;0.75;0.60;;;;;;;28.43;28.79;95533.69;5029302;28;20496;-28
2021/05/10 02:34:23;;;;;;;0.75;0.60;;;;;;;28.42;28.91;95524.09;5032114;28;20026;-31
2021/05/10 02:36:49;;;;;;;0.80;0.63;;;;;;;28.43;29.10;95531.06;5030035;28;20025;-29
2021/05/10 02:39:14;;;;;;;0.50;0.50;;;;;;;28.42;29.01;95529.34;5038469;28;20039;-30
2021/05/10 02:41:39;;;;;;;1.75;0.60;;;;;;;28.42;29.00;95524.09;5034742;28;20739;-28
2021/05/10 02:44:05;;;;;;;1.27;0.70;;;;;;;28.42;29.04;95518.81;5033802;28;20043;-28
2021/05/10 02:46:30;;;;;;;1.05;0.70;;;;;;;28.42;28.89;95513.56;5029031;28;20603;-32
2021/05/10 02:48:56;;;;;;;0.60;0.50;;;;;;;28.42;28.81;95518.81;5025687;28;20020;-28
2021/05/10 02:51:21;;;;;;;1.77;0.50;;;;;;;28.42;28.80;95503.00;5035358;28;20073;-29
2021/05/10 02:53:47;;;;;;;0.95;0.57;;;;;;;28.42;28.92;95518.81;5035957;28;20194;-26
2021/05/10 02:56:12;;;;;;;0.63;0.60;;;;;;;28.41;29.01;95517.16;5030062;28;20028;-30
2021/05/10 02:58:38;;;;;;;1.05;0.50;;;;;;;28.42;28.96;95523.28;5031021;28;20761;-34
2021/05/10 03:01:03;;;;;;;1.10;0.57;;;;;;;28.42;28.72;95516.19;5026698;28;20102;-30
2021/05/10 03:03:29;;;;;;;0.90;0.40;;;;;;;28.41;28.91;95517.16;5033578;28;20044;-31
2021/05/10 03:05:54;;;;;;;0.57;0.47;;;;;;;28.41;28.95;95517.16;5036457;28;20035;-29
2021/05/10 03:08:19;;;;;;;1.08;0.60;;;;;;;28.41;28.89;95530.34;5025761;28;20017;-29
2021/05/10 03:10:45;;;;;;;1.63;0.70;;;;;;;28.41;28.90;95529.47;5030188;28;20723;-30
2021/05/10 03:13:10;;;;;;;1.23;0.70;;;;;;;28.42;28.60;95534.63;5021533;28;20021;-32
2021/05/10 03:15:35;;;;;;;1.42;0.73;;;;;;;28.41;29.13;95532.97;5023976;28;20698;-31
2021/05/10 03:18:01;;;;;;;1.17;0.70;;;;;;;28.43;28.61;95532.84;5025456;28;20329;-28
2021/05/10 03:20:28;;;;;;;0.68;0.50;;;;;;;28.41;28.80;95532.97;5017302;28;20445;-29
2021/05/10 03:22:54;;;;;;;1.08;0.50;;;;;;;28.41;28.97;95543.50;5017380;28;20453;-30
2021/05/10 03:25:22;;;;;;;0.50;0.50;;;;;;;28.41;28.96;95546.13;5029782;28;20025;-33
2021/05/10 03:27:49;;;;;;;0.63;0.60;;;;;;;28.40;28.81;95552.38;5035954;28;20088;-30
2021/05/10 03:30:16;;;;;;;0.50;0.40;;;;;;;28.41;28.81;95580.41;5031170;28;20025;-29
2021/05/10 03:32:42;;;;;;;0.57;0.50;;;;;;;28.41;29.03;95596.19;5024332;28;20055;-30
2021/05/10 03:35:08;;;;;;;0.65;0.50;;;;;;;28.40;28.92;95599.81;5011834;28;20032;-33
2021/05/10 03:37:33;;;;;;;0.30;0.30;;;;;;;28.40;28.85;95594.53;5012864;28;20041;-29
2021/05/10 03:39:59;;;;;;;0.93;0.60;;;;;;;28.40;28.82;95599.81;5025204;28;20034;-28
2021/05/10 03:42:24;;;;;;;0.60;0.60;;;;;;;28.41;28.99;95598.84;5028761;28;20056;-33
2021/05/10 03:44:50;;;;;;;0.88;0.50;;;;;;;28.41;28.94;95595.34;5032352;28;20067;-33
2021/05/10 03:47:15;;;;;;;0.63;0.55;;;;;;;28.41;28.96;95612.00;5023053;28;20032;-30
2021/05/10 03:49:40;;;;;;;0.60;0.55;;;;;;;28.41;28.88;95611.16;5033690;28;20024;-29
2021/05/10 03:52:06;;;;;;;0.52;0.52;;;;;;;28.40;29.04;95599.81;5034650;28;20041;-34
2021/05/10 03:54:31;;;;;;;0.60;0.52;;;;;;;28.40;28.84;95594.53;5030253;28;21344;-29
2021/05/10 03:56:58;;;;;;;0.43;0.32;;;;;;;28.40;28.83;95591.91;5028568;28;20025;-29
2021/05/10 03:59:24;;;;;;;0.85;0.60;;;;;;;28.40;29.03;95620.88;5023557;28;20024;-33
2021/05/10 04:01:49;;;;;;;0.55;0.40;;;;;;;28.40;28.75;95627.94;5032636;28;20055;-31
2021/05/10 04:04:26;;;;;;;0.38;0.32;;;;;;;28.40;28.95;95620.03;5026348;28;20735;-30
2021/05/10 04:10:10;;;;;;;0.73;0.52;;;;;;;28.40;28.88;95641.13;5003208;28;20602;-34
2021/05/10 04:15:19;;;;;;;0.43;0.43;;;;;;;28.39;29.06;95644.72;5027922;28;20143;-32
2021/05/10 04:17:45;;;;;;;1.00;0.45;;;;;;;28.38;28.94;95624.63;5019718;28;20026;-29
2021/05/10 04:20:10;;;;;;;0.60;0.38;;;;;;;28.38;28.97;95625.44;5032160;28;20037;-34
2021/05/10 04:22:37;;;;;;;1.48;0.50;;;;;;;28.38;28.95;95633.34;5029713;28;20623;-29
2021/05/10 04:25:03;;;;;;;0.82;0.32;;;;;;;28.38;28.81;95622.78;5032525;28;20072;-33
2021/05/10 04:27:29;;;;;;;1.65;0.50;;;;;;;28.37;28.86;95610.59;5033587;28;20032;-28
2021/05/10 04:29:54;;;;;;;2.28;0.70;;;;;;;28.37;28.95;95610.59;5028670;28;20716;-30
2021/05/10 04:32:20;;;;;;;0.90;0.30;;;;;;;28.36;28.96;95598.38;5025299;28;20071;-33
2021/05/10 04:34:48;;;;;;;1.05;0.50;;;;;;;28.38;28.88;95600.91;5031839;28;20036;-30
2021/05/10 04:37:13;;;;;;;0.30;0.30;;;;;;;28.36;28.96;95587.84;5032851;28;20100;-29
2021/05/10 04:39:39;;;;;;;0.52;0.52;;;;;;;28.36;28.79;95585.22;5033699;28;20033;-30
2021/05/10 04:42:04;;;;;;;0.98;0.50;;;;;;;28.36;28.98;95579.94;5031538;28;20021;-31
2021/05/10 04:44:30;;;;;;;0.45;0.45;;;;;;;28.37;29.00;95584.25;5032699;28;20793;-30
2021/05/10 04:46:55;;;;;;;0.85;0.52;;;;;;;28.36;28.96;95598.38;5031274;28;20040;-34
2021/05/10 04:49:20;;;;;;;0.47;0.40;;;;;;;28.36;28.97;95603.66;5024630;28;20021;-30
2021/05/10 04:51:46;;;;;;;0.50;0.50;;;;;;;28.37;28.90;95576.34;5035166;28;20036;-31
2021/05/10 04:54:11;;;;;;;0.77;0.45;;;;;;;28.37;29.01;95599.25;5037121;28;20449;-36
2021/05/10 04:56:37;;;;;;;0.40;0.40;;;;;;;28.37;28.87;95586.88;5028901;28;20527;-30
2021/05/10 04:59:04;;;;;;;0.50;0.50;;;;;;;28.37;28.90;95578.16;5028232;28;20033;-33
2021/05/10 05:01:30;;;;;;;0.43;0.40;;;;;;;28.37;28.95;95604.50;5030034;28;20510;-30
2021/05/10 05:03:55;;;;;;;0.50;0.50;;;;;;;28.36;28.93;95598.38;5033778;28;20020;-32
2021/05/10 05:06:21;;;;;;;1.40;0.50;;;;;;;28.37;28.85;95604.50;5019763;28;20033;-32
2021/05/10 05:08:46;;;;;;;3.92;0.90;;;;;;;28.36;28.90;95601.03;5027587;28;20553;-32
2021/05/10 05:11:11;;;;;;;3.65;0.82;;;;;;;28.36;29.07;95608.94;5027182;28;20024;-30
2021/05/10 05:13:37;;;;;;;0.65;0.50;;;;;;;28.35;29.11;95609.91;5024610;28;20028;-32
2021/05/10 05:16:02;;;;;;;1.73;0.68;;;;;;;28.36;28.95;95614.19;5027190;28;20601;-31
2021/05/10 05:18:28;;;;;;;0.82;0.47;;;;;;;28.36;29.06;95614.19;5038117;28;20024;-31
2021/05/10 05:20:54;;;;;;;1.17;0.50;;;;;;;28.36;29.00;95624.75;5025278;28;20494;-32
2021/05/10 05:23:24;;;;;;;0.73;0.60;;;;;;;28.36;29.10;95619.47;5038219;28;20029;-32
2021/05/10 05:26:02;;;;;;;0.50;0.50;;;;;;;28.36;29.06;95624.75;5023971;28;20029;-32
2021/05/10 05:28:28;;;;;;;0.80;0.50;;;;;;;28.36;28.94;95635.28;5029221;28;20024;-29
2021/05/10 05:30:57;;;;;;;1.58;0.55;;;;;;;28.36;29.09;95624.75;5031207;28;20096;-29
2021/05/10 05:33:22;;;;;;;1.65;0.63;;;;;;;28.36;29.07;95640.53;5030085;28;20033;-31
2021/05/10 05:35:48;;;;;;;1.50;0.70;;;;;;;28.36;28.96;95645.81;5038840;28;20059;-32
2021/05/10 05:38:13;;;;;;;2.58;0.40;;;;;;;28.36;29.06;95635.28;5017850;28;20620;-28
2021/05/10 05:40:39;;;;;;;0.57;0.57;;;;;;;28.36;29.15;95635.28;5032905;28;20039;-31
2021/05/10 05:43:07;;;;;;;1.52;0.50;;;;;;;28.36;28.98;95643.19;5036459;28;20681;-29
2021/05/10 05:45:33;;;;;;;3.17;0.40;;;;;;;28.36;29.13;95656.34;5030516;28;20240;-32
2021/05/10 05:47:58;;;;;;;1.15;0.70;;;;;;;28.36;28.96;95661.63;5031975;28;21199;-30
2021/05/10 05:50:24;;;;;;;0.43;0.43;;;;;;;28.37;29.17;95665.91;5020539;28;22189;-27
2021/05/10 05:52:49;;;;;;;4.07;0.63;;;;;;;28.35;29.07;95673.13;5036943;28;20682;-33
2021/05/10 05:55:15;;;;;;;4.63;0.70;;;;;;;28.37;29.00;95683.53;5020680;28;20543;-30
2021/05/10 05:57:43;;;;;;;0.82;0.57;;;;;;;28.35;29.20;95688.94;5028512;28;20024;-32
2021/05/10 06:00:09;;;;;;;4.13;0.50;;;;;;;28.36;29.00;95693.25;5028813;28;20495;-31
2021/05/10 06:02:36;;;;;;;0.60;0.47;;;;;;;28.37;29.24;95694.91;5017930;28;22905;-28
2021/05/10 06:05:01;;;;;;;1.42;0.50;;;;;;;28.36;29.13;95695.88;5031101;28;20090;-30
2021/05/10 06:07:26;;;;;;;0.85;0.50;;;;;;;28.37;29.13;95699.34;5025617;28;20280;-27
2021/05/10 06:09:52;;;;;;;1.45;0.50;;;;;;;28.37;29.07;95715.97;5031474;28;20025;-28
2021/05/10 06:12:17;;;;;;;2.50;0.63;;;;;;;28.37;29.15;95715.97;5025718;28;20133;-31
2021/05/10 06:14:43;;;;;;;1.42;0.80;;;;;;;28.37;29.03;95705.44;5029219;28;20036;-30
2021/05/10 06:17:09;;;;;;;0.40;0.40;;;;;;;28.36;29.00;95711.69;5028192;28;20035;-28
2021/05/10 06:19:34;;;;;;;0.98;0.40;;;;;;;28.35;29.21;95704.75;5035460;28;20041;-32
2021/05/10 06:22:00;;;;;;;0.85;0.40;;;;;;;28.37;29.01;95715.16;5034356;28;20045;-29
2021/05/10 06:24:26;;;;;;;1.20;0.60;;;;;;;28.37;29.28;95705.44;5026966;28;20030;-29
2021/05/10 06:26:51;;;;;;;1.92;0.70;;;;;;;28.37;29.15;95694.09;5024966;28;20561;-30
2021/05/10 06:29:17;;;;;;;7.13;0.98;;;;;;;28.36;29.08;95687.13;5020624;28;20035;-30
2021/05/10 06:31:42;;;;;;;7.10;1.02;;;;;;;28.37;29.17;95704.63;5023181;28;20562;-31
2021/05/10 06:34:08;;;;;;;4.47;0.98;;;;;;;28.36;28.99;95703.78;5035200;28;20553;-27
2021/05/10 06:36:33;;;;;;;6.97;1.17;;;;;;;28.37;29.06;95704.63;5034780;28;20025;-34
2021/05/10 06:38:59;;;;;;;4.15;1.10;;;;;;;28.36;29.15;95713.47;5018412;28;20025;-30
2021/05/10 06:41:24;;;;;;;3.50;1.13;;;;;;;28.36;29.04;95705.56;5009817;28;20538;-29
2021/05/10 06:43:49;;;;;;;5.05;1.20;;;;;;;28.37;29.18;95718.63;5022567;28;20395;-30
2021/05/10 06:46:15;;;;;;;8.25;1.35;;;;;;;28.37;29.14;95710.72;5023169;28;20029;-29
2021/05/10 06:48:40;;;;;;;9.88;1.58;;;;;;;28.38;29.21;95716.84;5017370;28;20036;-29
2021/05/10 06:51:06;;;;;;;8.93;1.15;;;;;;;28.37;29.27;95723.88;5016656;28;20018;-30
2021/05/10 06:53:31;;;;;;;3.92;0.90;;;;;;;28.37;29.16;95737.06;5015026;28;20029;-33
2021/05/10 06:55:57;;;;;;;4.05;1.40;;;;;;;28.38;29.17;95736.09;5018852;28;20649;-28
2021/05/10 06:58:23;;;;;;;7.53;1.30;;;;;;;28.38;29.07;95757.19;5017197;28;20036;-30
2021/05/10 07:00:51;;;;;;;7.53;1.60;;;;;;;28.38;29.10;95757.19;5018664;28;20049;-32
2021/05/10 07:03:16;;;;;;;7.80;1.92;;;;;;;28.38;28.99;95759.81;5011543;28;23297;-29
2021/05/10 07:05:44;;;;;;;9.50;1.80;;;;;;;28.38;28.93;95765.06;5014585;28;20045;-33
2021/05/10 07:08:16;;;;;;;7.13;1.80;;;;;;;28.37;28.71;95776.59;5021631;28;20499;-29
2021/05/10 07:10:45;;;;;;;8.50;1.85;;;;;;;28.36;28.55;95782.81;5019825;28;21109;-29
2021/05/10 07:13:10;;;;;;;6.03;1.67;;;;;;;28.36;28.67;95780.19;5015257;28;20534;-35
2021/05/10 07:15:36;;;;;;;6.93;1.58;;;;;;;28.36;28.30;95787.25;5026902;28;20515;-32
2021/05/10 07:18:05;;;;;;;11.05;1.83;;;;;;;28.35;28.48;95786.44;5020138;28;20246;-30
2021/05/10 07:20:31;;;;;;;5.05;1.42;;;;;;;28.34;28.41;95787.34;5031541;28;20036;-30
2021/05/10 07:22:56;;;;;;;5.65;1.70;;;;;;;28.34;28.50;95795.25;5028086;28;20112;-30
2021/05/10 07:25:22;;;;;;;5.03;1.40;;;;;;;28.35;28.37;95785.56;5029940;28;20017;-31
2021/05/10 07:27:47;;;;;;;4.38;1.40;;;;;;;28.34;28.41;95787.34;5031094;28;20028;-31
2021/05/10 07:30:13;;;;;;;8.38;1.60;;;;;;;28.35;28.68;95801.38;5031528;28;20082;-31
2021/05/10 07:32:39;;;;;;;8.60;1.73;;;;;;;28.34;28.53;95795.25;5023858;28;20139;-28
2021/05/10 07:35:04;;;;;;;8.10;1.90;;;;;;;28.33;28.52;95801.50;5029172;28;20036;-28
2021/05/10 07:37:30;;;;;;;7.30;1.50;;;;;;;28.34;28.77;95808.44;5036444;28;20060;-31
2021/05/10 07:39:55;;;;;;;10.40;2.05;;;;;;;28.34;28.57;95813.72;5030577;28;20029;-31
2021/05/10 07:42:20;;;;;;;7.97;1.65;;;;;;;28.34;28.59;95816.34;5032357;28;20058;-28
2021/05/10 07:44:46;;;;;;;4.82;1.33;;;;;;;28.30;28.61;95810.47;5033656;28;20091;-28
2021/05/10 07:47:12;;;;;;;3.00;1.50;;;;;;;28.34;28.32;95820.78;5037030;28;20029;-28
2021/05/10 07:49:38;;;;;;;6.47;1.73;;;;;;;28.35;28.63;95822.47;5029593;28;20112;-27
2021/05/10 07:52:03;;;;;;;5.20;1.60;;;;;;;28.34;28.51;95826.88;5028419;28;20638;-30
2021/05/10 07:54:29;;;;;;;7.97;1.50;;;;;;;28.34;28.62;95816.34;5036738;28;20048;-27
2021/05/10 07:56:55;;;;;;;3.55;1.48;;;;;;;28.35;28.73;95804.03;5030929;28;20337;-33
2021/05/10 07:59:21;;;;;;;8.63;1.50;;;;;;;28.34;28.80;95795.25;5030823;28;20040;-30
2021/05/10 08:01:47;;;;;;;4.47;1.45;;;;;;;28.35;28.75;95791.69;5019140;28;20037;-32
2021/05/10 08:04:13;;;;;;;18.88;2.20;;;;;;;28.34;28.79;95795.25;5019301;28;20024;-29
2021/05/10 08:06:38;;;;;;;13.05;1.55;;;;;;;28.32;28.69;95796.34;5013882;28;20044;-29
2021/05/10 08:09:04;;;;;;;5.18;1.80;;;;;;;28.28;28.59;95801.03;5016617;28;20093;-29
2021/05/10 08:11:30;;;;;;;7.43;1.70;;;;;;;28.22;28.61;95802.31;5016201;28;20585;-31
2021/05/10 08:13:56;;;;;;;11.35;1.92;;;;;;;28.17;28.58;95801.84;5021261;28;20025;-28
2021/05/10 08:16:21;;;;;;;9.20;1.77;;;;;;;28.11;28.30;95810.25;5033621;28;20701;-28
2021/05/10 08:18:47;;;;;;;5.78;1.48;;;;;;;28.03;28.45;95809.03;5027320;28;20036;-32
2021/05/10 08:21:12;;;;;;;4.63;1.40;;;;;;;27.96;28.40;95807.81;5030748;28;20044;-28
2021/05/10 08:23:37;;;;;;;6.97;1.63;;;;;;;27.90;28.49;95808.31;5023646;28;20041;-31
2021/05/10 08:26:03;;;;;;;11.80;2.05;;;;;;;27.83;28.57;95823.75;5024089;28;20028;-27
2021/05/10 08:28:30;;;;;;;8.52;1.80;;;;;;;27.77;28.84;95825.06;5022288;28;20024;-29
2021/05/10 08:30:56;;;;;;;6.45;1.88;;;;;;;27.73;29.08;95833.31;5020992;28;20052;-32
2021/05/10 08:33:21;;;;;;;5.80;1.58;;;;;;;27.70;29.05;95830.91;5032124;28;20033;-30
2021/05/10 08:35:46;;;;;;;4.07;1.80;;;;;;;27.68;29.07;95833.66;5036714;28;20025;-28
2021/05/10 08:38:12;;;;;;;8.07;1.80;;;;;;;27.70;29.09;95833.53;5033160;28;20585;-32
2021/05/10 08:40:37;;;;;;;19.15;2.05;;;;;;;27.72;29.18;95836.91;5021513;28;20089;-28
2021/05/10 08:43:24;;;;;;;36.17;2.80;;;;;;;27.74;29.23;95822.69;5023433;28;20036;-30
2021/05/10 08:45:55;;;;;;;12.25;2.40;;;;;;;27.78;29.26;95823.28;5016304;28;20033;-27
2021/05/10 08:48:24;;;;;;;12.43;2.13;;;;;;;27.81;29.25;95825.69;5035214;28;20029;-31
2021/05/10 08:50:50;;;;;;;10.00;2.13;;;;;;;27.84;29.21;95819.34;5036388;28;20037;-30
2021/05/10 08:53:15;;;;;;;10.60;2.88;;;;;;;27.86;29.25;95823.53;5035966;28;20036;-28
2021/05/10 08:55:41;;;;;;;7.05;2.45;;;;;;;27.88;29.28;95821.59;5035475;28;20032;-30
2021/05/10 08:58:08;;;;;;;14.60;3.00;;;;;;;27.91;29.23;95826.63;5035656;28;20625;-32
2021/05/10 09:00:34;;;;;;;11.10;2.75;;;;;;;27.95;29.33;95826.41;5038701;28;20180;-30
2021/05/10 09:03:10;;;;;;;12.50;2.40;;;;;;;27.97;29.14;95835.00;5033613;28;20036;-28
2021/05/10 09:05:50;;;;;;;12.73;3.50;;;;;;;28.00;29.26;95829.50;5035960;28;20747;-35
2021/05/10 09:08:15;;;;;;;10.32;2.70;;;;;;;28.02;29.25;95838.13;5040084;28;20055;-29
2021/05/10 09:10:41;;;;;;;10.00;2.80;;;;;;;28.04;29.25;95847.56;5038733;28;20316;-30
2021/05/10 09:13:07;;;;;;;8.00;2.88;;;;;;;28.06;29.21;95836.94;5034629;28;20051;-28
2021/05/10 09:15:33;;;;;;;8.32;2.53;;;;;;;28.08;29.15;95845.56;5041802;28;20095;-30
2021/05/10 09:18:01;;;;;;;13.75;2.83;;;;;;;28.10;29.14;95856.81;5041059;28;20111;-28
2021/05/10 09:20:36;;;;;;;6.93;2.63;;;;;;;28.11;29.08;95855.84;5038422;28;20029;-32
2021/05/10 09:23:09;;;;;;;11.15;3.38;;;;;;;28.14;29.23;95857.38;5035638;28;20037;-31
2021/05/10 09:25:35;;;;;;;9.20;2.58;;;;;;;28.15;29.24;95845.91;5041617;28;20037;-28
2021/05/10 09:28:17;;;;;;;7.22;2.60;;;;;;;28.17;29.27;95834.31;5036977;28;20595;-29
2021/05/10 09:30:44;;;;;;;6.60;2.33;;;;;;;28.17;29.19;95839.56;5034278;28;20036;-31
2021/05/10 09:33:27;;;;;;;7.82;2.75;;;;;;;28.19;29.22;95844.72;5040768;28;20045;-29
2021/05/10 09:35:52;;;;;;;7.45;2.75;;;;;;;28.21;29.26;95841.94;5038303;28;20028;-32
2021/05/10 09:38:28;;;;;;;8.40;2.40;;;;;;;28.21;29.27;95848.06;5033681;28;23288;-33
2021/05/10 09:40:58;;;;;;;7.28;2.30;;;;;;;28.23;29.29;95851.44;5045361;28;20151;-31
2021/05/10 09:43:27;;;;;;;7.93;2.70;;;;;;;28.25;29.36;95853.91;5038056;28;20451;-31
2021/05/10 09:45:54;;;;;;;8.13;2.13;;;;;;;28.26;29.23;95853.03;5039818;28;20059;-32
2021/05/10 09:48:22;;;;;;;8.23;2.50;;;;;;;28.27;29.37;95838.88;5037937;28;20040;-29
2021/05/10 09:50:49;;;;;;;8.20;2.42;;;;;;;28.28;29.27;95836.13;5037336;28;20619;-29
2021/05/10 09:53:36;;;;;;;6.15;2.33;;;;;;;28.30;29.26;95828.13;5039634;28;20108;-29
2021/05/10 09:56:04;;;;;;;6.47;2.40;;;;;;;28.31;29.18;95816.59;5037858;28;20017;-31
2021/05/10 09:58:43;;;;;;;6.72;2.15;;;;;;;28.32;29.22;95834.09;5036669;28;20033;-29
2021/05/10 10:01:08;;;;;;;6.60;2.40;;;;;;;28.32;29.24;95844.63;5032902;28;20439;-32
2021/05/10 10:03:44;;;;;;;5.72;2.33;;;;;;;28.35;29.17;95857.56;5036485;28;20033;-30
2021/05/10 10:06:12;;;;;;;11.82;2.42;;;;;;;28.35;29.19;95854.94;5031411;28;20785;-30
2021/05/10 10:08:38;;;;;;;5.38;2.15;;;;;;;28.36;29.39;95853.97;5031661;28;20053;-29
2021/05/10 10:11:05;;;;;;;12.18;2.58;;;;;;;28.36;29.26;95851.31;5035403;28;20044;-30
2021/05/10 10:13:31;;;;;;;7.30;2.40;;;;;;;28.38;29.28;95864.38;5038058;28;20044;-29
2021/05/10 10:15:57;;;;;;;5.68;2.45;;;;;;;28.39;29.28;95880.09;5036944;28;20424;-29
2021/05/10 10:18:23;;;;;;;9.02;2.30;;;;;;;28.40;29.37;95899.34;5037566;28;20800;-31
2021/05/10 10:20:49;;;;;;;6.82;2.22;;;;;;;28.40;29.16;95897.56;5034889;28;21033;-32
2021/05/10 10:23:16;;;;;;;4.47;2.00;;;;;;;28.40;29.29;95910.72;5035389;28;20045;-31
2021/05/10 10:25:42;;;;;;;4.88;2.03;;;;;;;28.42;29.37;95915.88;5033131;28;20032;-28
2021/05/10 10:28:12;;;;;;;4.22;1.90;;;;;;;28.42;29.38;95911.44;5034848;28;20562;-30
2021/05/10 10:30:40;;;;;;;6.97;1.88;;;;;;;28.43;29.29;95928.94;5035084;28;20159;-29
2021/05/10 10:33:10;;;;;;;8.13;2.30;;;;;;;28.45;29.31;95927.97;5014580;28;20161;-27
2021/05/10 10:35:37;;;;;;;3.92;1.73;;;;;;;28.46;29.24;95919.13;5032581;28;20547;-31
2021/05/10 10:38:05;;;;;;;5.43;2.13;;;;;;;28.47;29.49;95912.88;5037047;28;20039;-27
2021/05/10 10:40:30;;;;;;;6.32;1.90;;;;;;;28.48;29.28;95925.09;5035310;28;20031;-33
2021/05/10 10:43:24;;;;;;;4.45;2.05;;;;;;;28.47;29.45;95910.25;5029838;28;20039;-30
2021/05/10 10:46:19;;;;;;;2.60;1.65;;;;;;;28.48;29.53;95919.81;5032039;28;20036;-30
2021/05/10 10:48:45;;;;;;;4.35;1.90;;;;;;;28.48;29.39;95910.13;5019962;28;20123;-30
2021/05/10 10:51:12;;;;;;;5.47;1.85;;;;;;;28.49;29.37;95908.34;5030762;28;20029;-28
2021/05/10 10:53:49;;;;;;;3.70;1.63;;;;;;;28.50;29.48;95923.19;5035719;28;20052;-30
2021/05/10 10:56:14;;;;;;;3.38;1.60;;;;;;;28.50;29.56;95912.66;5034239;28;20024;-31
2021/05/10 10:58:42;;;;;;;4.38;1.70;;;;;;;28.50;29.43;95917.91;5034509;28;20048;-30
2021/05/10 11:01:13;;;;;;;4.28;1.50;;;;;;;28.50;29.38;95916.13;5037096;28;20037;-31
2021/05/10 11:03:39;;;;;;;3.20;1.58;;;;;;;28.51;29.42;95922.22;5039252;28;20524;-29
2021/05/10 11:06:05;;;;;;;4.68;1.77;;;;;;;28.51;29.47;95927.50;5027637;28;20186;-31
2021/05/10 11:08:39;;;;;;;6.57;1.88;;;;;;;28.51;29.55;95933.63;5035635;28;20028;-31
2021/05/10 11:11:05;;;;;;;4.68;1.83;;;;;;;28.53;29.50;95922.97;5038854;28;20231;-31
2021/05/10 11:13:36;;;;;;;2.80;1.55;;;;;;;28.53;29.54;95936.13;5038434;28;20419;-28
2021/05/10 11:16:09;;;;;;;3.95;1.52;;;;;;;28.53;29.37;95951.94;5034737;28;20159;-29
2021/05/10 11:18:49;;;;;;;5.30;1.52;;;;;;;28.54;29.54;95953.63;5038054;28;20123;-27
2021/05/10 11:21:23;;;;;;;4.25;1.70;;;;;;;28.54;29.54;95970.25;5033208;28;20033;-28
2021/05/10 11:23:53;;;;;;;3.55;1.48;;;;;;;28.54;29.60;95975.53;5037483;28;20029;-31
2021/05/10 11:26:38;;;;;;;5.50;1.40;;;;;;;28.55;29.52;95973.75;5036243;28;20135;-33
2021/05/10 11:29:11;;;;;;;3.80;1.38;;;;;;;28.55;29.46;95976.38;5038155;28;20032;-29
2021/05/10 11:31:38;;;;;;;2.47;1.50;;;;;;;28.56;29.42;95970.13;5028699;28;20119;-31
2021/05/10 11:34:05;;;;;;;2.10;1.20;;;;;;;28.55;29.61;95971.09;5026701;28;20110;-29
2021/05/10 11:36:35;;;;;;;2.95;1.30;;;;;;;28.55;29.51;95965.84;5009396;28;20197;-32